Latest Weather Observations for Morawa Airport

IDW60801

Issued at 10:32 am WST Wednesday 2 September 2015 (issued every 30 minutes, with the page automatically refreshed every 10 minutes)

About weather observations | Map of weather stations | Latest weather observations for WA | Other Formats
Station Details ID: 008296 Name: MORAWA AIRPORT Lat: -29.20 Lon: 116.02 Height: 271.4 m
Data from the previous 72 hours. | See also: Recent months at Morawa Airport
Date/Time
WST
Temp
°C
App
Temp
°C
Dew
Point
Rel
Hum
%
Delta-T
°C
Wind Press
QNH
hPa
Press
MSL
hPa
Rain
since 9 am
mm
Dir
 
Spd
km/h
Gust
km/h
Spd
kts
Gust
kts
02/10:30am 12.1 6.8 2.0 50 4.4 ENE 19 28 10 15 1025.2 1024.8 0.0
02/10:00am 11.7 6.3 2.5 53 4.0 E 20 30 11 16 1025.4 1025.0 0.0
02/09:30am 11.1 6.0 2.9 57 3.6 E 19 28 10 15 1025.7 1025.3 0.0
02/09:00am 10.1 5.7 2.9 61 3.1 ESE 15 22 8 12 1026.0 1025.6 0.0
02/08:30am 8.9 5.4 3.5 69 2.4 ESE 11 15 6 8 1025.9 1025.5 0.0
02/08:00am 6.9 3.0 3.3 78 1.5 ESE 13 19 7 10 1025.8 1025.4 0.0
02/07:30am 5.2 2.7 3.7 90 0.6 SE 6 9 3 5 1025.7 1025.3 0.0
02/07:00am 3.4 1.1 2.8 96 0.2 SE 4 6 2 3 1025.3 1024.9 0.0
02/06:30am 2.4 -0.6 1.8 96 0.2 ESE 7 9 4 5 1024.7 1024.4 0.0
02/06:00am 3.1 0.1 2.2 94 0.4 ESE 7 11 4 6 1024.6 1024.3 0.0
02/05:30am 3.2 0.4 2.2 93 0.4 ESE 6 13 3 7 1024.8 1024.5 0.0
02/05:00am 3.2 1.2 2.5 95 0.3 SE 2 4 1 2 1024.7 1024.4 0.0
02/04:30am 3.2 0.8 2.0 92 0.5 SE 4 6 2 3 1024.5 1024.2 0.0
02/04:00am 3.5 0.2 2.2 91 0.5 ESE 9 9 5 5 1024.3 1024.0 0.0
02/03:30am 4.2 1.3 2.4 88 0.7 ESE 7 11 4 6 1024.0 1023.7 0.0
02/03:00am 4.8 1.2 2.8 87 0.8 ESE 11 15 6 8 1023.8 1023.5 0.0
02/02:30am 4.1 0.5 3.1 93 0.4 ESE 11 15 6 8 1024.0 1023.7 0.0
02/02:00am 3.2 0.1 1.6 89 0.6 SE 7 7 4 4 1024.3 1024.0 0.0
02/01:30am 4.0 2.0 2.2 88 0.7 SE 2 6 1 3 1024.2 1023.9 0.0
02/01:00am 4.1 1.3 2.1 87 0.8 SE 6 6 3 3 1024.2 1023.9 0.0
02/12:30am 3.8 0.9 1.5 85 0.9 SE 6 9 3 5 1024.1 1023.8 0.0
02/12:00am 4.3 1.3 1.8 84 1.0 SE 7 9 4 5 1024.2 1023.9 0.0
 
Date/Time
WST
Temp
°C
App
Temp
°C
Dew
Point
Rel
Hum
%
Delta-T
°C
Wind Press
QNH
hPa
Press
MSL
hPa
Rain
since 9 am
mm
Dir
 
Spd
km/h
Gust
km/h
Spd
kts
Gust
kts
01/11:30pm 4.6 1.6 1.8 82 1.1 SE 7 9 4 5 1024.2 1023.9 0.0
01/11:00pm 5.3 1.9 1.6 77 1.5 SE 9 11 5 6 1024.3 1024.0 0.0
01/10:30pm 6.8 3.4 1.7 70 2.1 ESE 9 13 5 7 1024.6 1024.3 0.0
01/10:00pm 7.9 4.2 2.2 67 2.4 SE 11 15 6 8 1024.5 1024.2 0.0
01/09:30pm 8.2 4.6 2.7 68 2.4 ESE 11 15 6 8 1024.4 1024.1 0.0
01/09:00pm 8.2 5.0 2.9 69 2.3 SE 9 11 5 6 1024.3 1024.0 0.0
01/08:30pm 9.0 5.9 3.8 70 2.3 SE 9 9 5 5 1024.2 1023.9 0.0
01/08:00pm 9.6 6.5 3.8 67 2.6 SSE 9 11 5 6 1024.0 1023.7 0.0
01/07:30pm 9.6 6.5 3.6 66 2.7 SSE 9 11 5 6 1023.7 1023.4 0.0
01/07:00pm 9.2 6.4 3.0 65 2.7 SSE 7 9 4 5 1023.3 1023.0 0.0
01/06:30pm 10.8 7.1 2.6 57 3.6 SSE 11 13 6 7 1023.0 1022.7 0.0
01/06:00pm 11.7 7.7 2.7 54 4.0 SSE 13 17 7 9 1022.8 1022.4 0.0
01/05:30pm 13.0 7.6 2.3 48 4.7 SSE 20 28 11 15 1022.4 1022.0 0.0
01/05:00pm 13.8 9.0 2.4 46 5.1 S 17 28 9 15 1022.1 1021.7 0.0
01/04:30pm 14.3 9.1 2.2 44 5.4 S 19 24 10 13 1022.1 1021.7 0.0
01/04:00pm 14.7 9.8 1.9 42 5.7 S 17 24 9 13 1022.0 1021.6 0.0
01/03:30pm 13.7 8.4 2.0 45 5.2 S 19 28 10 15 1022.2 1021.8 0.0
01/03:00pm 15.3 11.0 3.1 44 5.6 S 15 22 8 12 1022.1 1021.7 0.0
01/02:30pm 14.1 9.0 3.0 47 5.0 SSE 19 30 10 16 1022.2 1021.8 0.0
01/02:00pm 14.0 9.6 2.9 47 5.0 S 15 24 8 13 1022.6 1022.2 0.0
01/01:30pm 13.6 7.8 2.5 47 5.0 S 22 32 12 17 1022.6 1022.2 0.0
01/01:00pm 13.5 8.8 3.0 49 4.7 S 17 30 9 16 1022.8 1022.4 0.0
01/12:30pm 13.0 8.0 3.7 53 4.2 S 19 30 10 16 1023.1 1022.8 0.0
01/12:00pm 13.1 8.2 4.0 54 4.2 SSE 19 32 10 17 1023.3 1023.0 0.0
01/11:30am 12.5 8.0 4.2 57 3.8 SSE 17 26 9 14 1023.6 1023.3 0.0
01/11:00am 12.1 7.3 4.8 61 3.4 SSE 19 24 10 13 1023.8 1023.5 0.0
01/10:30am 11.5 6.2 5.2 65 2.9 SSE 22 32 12 17 1023.7 1023.4 0.0
01/10:00am 11.1 5.6 6.0 71 2.4 SSE 24 33 13 18 1023.7 1023.4 0.0
01/09:30am 11.6 6.8 7.5 76 2.0 SSE 22 30 12 16 1023.7 1023.4 0.0
01/09:00am 10.7 6.5 8.3 85 1.2 SSE 20 28 11 15 1023.5 1023.2 0.8
01/08:30am 10.3 6.3 8.4 88 0.9 S 19 24 10 13 1023.0 1022.7 0.8
01/08:00am 9.7 7.7 8.6 93 0.5 S 9 13 5 7 1022.7 1022.3 0.8
01/07:30am 8.4 6.9 8.3 99 0.0 SSW 6 9 3 5 1022.2 1022.1 0.8
01/07:00am 7.7 5.8 7.7 100 0.0 SSW 7 9 4 5 1021.8 1021.6 0.8
01/06:30am 7.8 6.2 7.8 100 0.0 SW 6 9 3 5 1021.6 1021.4 0.8
01/06:00am 7.3 5.5 7.3 100 0.0 SW 6 9 3 5 1021.1 1021.0 0.8
01/05:30am 7.3 5.5 7.3 100 0.0 SW 6 9 3 5 1020.8 1020.7 0.8
01/05:00am 7.5 5.8 7.5 100 0.0 SSW 6 7 3 4 1020.5 1020.4 0.8
01/04:30am 8.0 6.4 8.0 100 0.0 SSW 6 7 3 4 1020.5 1020.4 0.8
01/04:00am 8.4 6.9 8.4 100 0.0 SW 6 9 3 5 1020.4 1020.3 0.8
01/03:30am 8.3 7.2 8.3 100 0.0 SW 4 6 2 3 1020.2 1020.1 0.8
01/03:00am 8.5 7.0 8.5 100 0.0 SW 6 6 3 3 1020.3 1020.2 0.8
01/02:30am 8.8 7.4 8.8 100 0.0 WSW 6 7 3 4 1020.5 1020.4 0.8
01/02:00am 9.2 7.9 9.2 100 0.0 WSW 6 6 3 3 1020.6 1020.5 0.8
01/01:30am 9.9 8.8 9.9 100 0.0 SW 6 6 3 3 1020.7 1020.6 0.6
01/01:00am 10.5 9.9 10.5 100 0.0 WSW 4 7 2 4 1020.7 1020.6 0.6
01/12:30am 11.1 10.3 11.1 100 0.0 WSW 6 9 3 5 1020.7 1020.6 0.6
01/12:00am 11.2 9.9 11.2 100 0.0 SW 9 13 5 7 1020.5 1020.4 0.6
 
Date/Time
WST
Temp
°C
App
Temp
°C
Dew
Point
Rel
Hum
%
Delta-T
°C
Wind Press
QNH
hPa
Press
MSL
hPa
Rain
since 9 am
mm
Dir
 
Spd
km/h
Gust
km/h
Spd
kts
Gust
kts
31/11:30pm 11.0 10.0 11.0 100 0.0 WSW 7 11 4 6 1020.6 1020.5 0.6
31/11:00pm 11.2 10.3 11.2 100 0.0 SW 7 11 4 6 1020.7 1020.6 0.6
31/10:30pm 11.6 10.4 11.6 100 0.0 SSW 9 17 5 9 1020.7 1020.6 0.6
31/10:00pm 12.1 10.7 12.1 100 0.0 SW 11 15 6 8 1020.9 1020.8 0.4
31/09:30pm 11.9 10.0 11.9 100 0.0 SW 13 20 7 11 1020.7 1020.6 0.2
31/09:00pm 12.5 10.8 12.5 100 0.0 SSW 13 20 7 11 1020.7 1020.6 0.2
31/08:30pm 12.5 11.5 12.2 98 0.2 SW 9 13 5 7 1020.6 1020.5 0.2
31/08:00pm 12.1 11.3 11.6 97 0.3 WSW 7 13 4 7 1020.3 1020.2 0.2
31/07:30pm 12.7 10.7 10.2 85 1.3 WSW 11 19 6 10 1020.2 1020.1 0.0
31/07:00pm 13.3 11.1 9.2 76 2.1 W 11 17 6 9 1019.9 1019.8 0.0
31/06:30pm 13.7 11.5 9.2 74 2.3 W 11 17 6 9 1019.6 1019.5 0.0
31/06:00pm 14.6 10.5 8.5 67 3.1 W 20 30 11 16 1019.3 1019.2 0.0
31/05:30pm 16.0 11.6 7.5 57 4.3 W 20 35 11 19 1019.1 1019.0 0.0
31/05:00pm 16.6 12.4 7.5 55 4.6 WSW 19 28 10 15 1018.9 1018.7 0.0
31/04:30pm 17.1 12.8 6.9 51 5.1 WSW 19 26 10 14 1018.6 1018.4 0.0
31/04:00pm 17.0 11.8 5.6 47 5.6 WSW 22 33 12 18 1018.6 1018.4 0.0
31/03:30pm 18.0 12.0 5.2 43 6.3 WSW 26 41 14 22 1018.7 1018.5 0.0
31/03:00pm 18.0 11.9 4.9 42 6.4 WSW 26 37 14 20 1018.7 1018.5 0.0
31/02:30pm 18.8 13.2 5.6 42 6.6 W 24 35 13 19 1018.7 1018.5 0.0
31/02:00pm 17.0 13.7 7.9 55 4.7 WSW 15 22 8 12 1018.9 1018.7 0.0
31/01:30pm 17.4 14.5 8.0 54 4.8 WSW 13 22 7 12 1019.2 1019.1 0.0
31/01:00pm 15.9 11.7 8.2 60 3.9 SW 20 32 11 17 1019.8 1019.7 0.0
31/12:30pm 17.1 13.4 8.0 55 4.7 W 17 28 9 15 1020.0 1019.9 0.0
31/12:00pm 17.1 14.1 7.5 53 4.9 SW 13 20 7 11 1020.2 1020.1 0.0
31/11:30am 16.5 14.1 7.2 54 4.7 WSW 9 15 5 8 1020.7 1020.6 0.0
31/11:00am 15.6 13.0 7.6 59 4.0 WSW 11 19 6 10 1021.1 1021.0 0.0
31/10:30am 15.7 14.6 8.4 62 3.8 W 4 9 2 5 1021.1 1021.0 0.0
31/10:00am 14.5 13.7 8.0 65 3.3 WSW 2 9 1 5 1021.5 1021.3 0.0
31/09:30am 13.0 12.3 10.0 82 1.6 S 4 7 2 4 1021.7 1021.5 0.0
31/09:00am 11.3 10.4 11.3 100 0.0 SSW 7 9 4 5 1021.9 1021.7 0.0
31/08:30am 9.0 7.5 9.0 100 0.0 SSW 7 15 4 8 1021.8 1021.6 0.0
31/08:00am 9.3 9.2 9.3 100 0.0 CALM 0 0 0 0 1021.4 1021.2 0.0
31/07:30am 7.2 6.6 7.2 100 0.0 CALM 0 0 0 0 1021.0 1020.9 0.0
31/07:00am 5.8 4.8 5.8 100 0.0 CALM 0 0 0 0 1020.6 1020.5 0.0
31/06:30am 5.3 4.2 5.3 100 0.0 CALM 0 0 0 0 1020.2 1020.1 0.0
31/06:00am 5.7 4.7 5.7 100 0.0 CALM 0 0 0 0 1020.2 1020.1 0.0
31/05:30am 6.0 4.3 6.0 100 0.0 SSW 4 4 2 2 1020.3 1020.2 0.0
31/05:00am 5.9 5.0 5.9 100 0.0 CALM 0 0 0 0 1020.2 1020.1 0.0
31/04:30am 5.9 5.0 5.9 100 0.0 CALM 0 0 0 0 1020.0 1019.9 0.0
31/04:00am 6.3 5.5 6.3 100 0.0 CALM 0 0 0 0 1020.0 1019.9 0.0
31/03:30am 6.5 5.7 6.5 100 0.0 CALM 0 0 0 0 1020.2 1020.1 0.0
31/03:00am 7.1 6.0 7.1 100 0.0 SSW 2 2 1 1 1020.4 1020.3 0.0
31/02:30am 7.3 5.9 7.3 100 0.0 SSW 4 6 2 3 1020.6 1020.5 0.0
31/02:00am 7.7 6.8 7.7 100 0.0 SSW 2 4 1 2 1020.8 1020.7 0.0
31/01:30am 8.7 7.7 8.7 100 0.0 SSW 4 6 2 3 1021.1 1021.0 0.0
31/01:00am 9.0 8.0 9.0 100 0.0 SSW 4 4 2 2 1021.3 1021.1 0.0
31/12:30am 9.3 8.4 9.3 100 0.0 SSW 4 4 2 2 1021.3 1021.1 0.0
31/12:00am 9.9 9.9 9.9 100 0.0 CALM 0 0 0 0 1021.4 1021.2 0.0
 
Date/Time
WST
Temp
°C
App
Temp
°C
Dew
Point
Rel
Hum
%
Delta-T
°C
Wind Press
QNH
hPa
Press
MSL
hPa
Rain
since 9 am
mm
Dir
 
Spd
km/h
Gust
km/h
Spd
kts
Gust
kts
30/11:30pm 10.2 9.5 10.2 100 0.0 SSW 4 6 2 3 1021.7 1021.5 0.0
30/11:00pm 10.3 9.7 10.3 100 0.0 SSW 4 6 2 3 1021.8 1021.6 0.0
30/10:30pm 10.6 10.4 10.4 99 0.1 SSW 2 2 1 1 1021.8 1021.6 0.0
30/10:00pm 11.1 10.3 10.9 99 0.1 SSW 6 7 3 4 1021.9 1021.7 0.0
30/09:30pm 11.2 10.3 10.6 96 0.3 SSW 6 7 3 4 1022.0 1021.8 0.0
30/09:00pm 11.9 10.9 11.1 95 0.4 S 7 9 4 5 1022.0 1021.8 0.0
30/08:30pm 12.8 11.5 11.2 90 0.9 S 9 11 5 6 1021.9 1021.7 0.0
30/08:00pm 13.4 12.2 11.6 89 1.0 S 9 15 5 8 1021.7 1021.5 0.0
30/07:30pm 14.1 12.1 11.4 84 1.5 S 13 20 7 11 1021.4 1021.2 0.0
30/07:00pm 14.9 13.2 11.1 78 2.0 SSW 11 20 6 11 1020.8 1020.7 0.0
30/06:30pm 15.8 13.9 10.6 71 2.8 SSW 11 17 6 9 1020.4 1020.3 0.0
30/06:00pm 17.0 14.8 9.4 61 4.0 SW 11 15 6 8 1020.2 1020.1 0.0
30/05:30pm 18.3 15.9 8.6 53 5.1 WSW 11 17 6 9 1019.9 1019.8 0.0
30/05:00pm 18.3 16.7 8.8 54 5.0 WSW 7 13 4 7 1019.6 1019.5 0.0
30/04:30pm 19.5 17.2 9.1 51 5.5 SW 11 15 6 8 1019.5 1019.4 0.0
30/04:00pm 19.5 17.1 10.0 54 5.1 SW 13 20 7 11 1019.4 1019.3 0.0
30/03:30pm 19.7 17.1 10.7 56 4.9 W 15 24 8 13 1019.3 1019.2 0.0
30/03:00pm 19.2 16.2 9.4 53 5.2 W 15 24 8 13 1019.3 1019.2 0.0
30/02:30pm 19.4 16.5 9.6 53 5.3 SW 15 22 8 12 1019.2 1019.1 0.0
30/02:00pm 20.9 18.3 9.2 47 6.3 SW 13 19 7 10 1019.3 1019.2 0.0
30/01:30pm 21.0 18.1 8.3 44 6.7 W 13 24 7 13 1019.4 1019.3 0.0
30/01:00pm 19.8 15.9 7.2 44 6.5 WSW 17 28 9 15 1019.7 1019.6 0.0
30/12:30pm 19.1 16.1 9.3 53 5.2 WSW 15 24 8 13 1020.0 1019.9 0.0
30/12:00pm 19.4 16.9 11.2 59 4.5 SW 15 24 8 13 1020.2 1020.1 0.0
30/11:30am 18.8 18.0 11.6 63 4.0 SW 7 15 4 8 1020.6 1020.5 0.0
30/11:00am 18.9 17.8 11.9 64 3.9 SW 9 20 5 11 1020.7 1020.6 0.0

Other Formats:

Comma delimited format used in spreadsheet applications
http://www.bom.gov.au/fwo/IDW60801/IDW60801.94417.axf

JavaScript Object Notation format (JSON) in row-major order
http://www.bom.gov.au/fwo/IDW60801/IDW60801.94417.json